sensor_id;sensor_type;location;lat;lon;timestamp;pressure;altitude;pressure_sealevel;temperature;humidity
20115;BME280;10218;42.874;25.320;2023-11-19T00:00:32;96867.44;;;4.79;100.00
20115;BME280;10218;42.874;25.320;2023-11-19T00:03:00;96871.66;;;4.71;100.00
20115;BME280;10218;42.874;25.320;2023-11-19T00:05:27;96875.22;;;4.90;100.00
20115;BME280;10218;42.874;25.320;2023-11-19T00:07:54;96875.22;;;4.90;100.00
20115;BME280;10218;42.874;25.320;2023-11-19T00:10:21;96869.34;;;4.96;100.00
20115;BME280;10218;42.874;25.320;2023-11-19T00:12:50;96875.37;;;4.79;100.00
20115;BME280;10218;42.874;25.320;2023-11-19T00:15:18;96865.47;;;4.90;100.00
20115;BME280;10218;42.874;25.320;2023-11-19T00:17:47;96878.66;;;5.00;100.00
20115;BME280;10218;42.874;25.320;2023-11-19T00:20:18;96866.25;;;5.00;100.00
20115;BME280;10218;42.874;25.320;2023-11-19T00:22:46;96891.41;;;4.87;100.00
20115;BME280;10218;42.874;25.320;2023-11-19T00:25:15;96899.94;;;4.42;100.00
20115;BME280;10218;42.874;25.320;2023-11-19T00:27:42;96894.19;;;4.76;100.00
20115;BME280;10218;42.874;25.320;2023-11-19T00:30:13;96890.34;;;5.07;100.00
20115;BME280;10218;42.874;25.320;2023-11-19T00:32:41;96903.12;;;4.74;100.00
20115;BME280;10218;42.874;25.320;2023-11-19T00:35:08;96897.13;;;4.82;100.00
20115;BME280;10218;42.874;25.320;2023-11-19T00:37:41;96889.34;;;4.61;100.00
20115;BME280;10218;42.874;25.320;2023-11-19T00:40:10;96895.91;;;4.67;100.00
20115;BME280;10218;42.874;25.320;2023-11-19T00:42:37;96888.91;;;4.76;100.00
20115;BME280;10218;42.874;25.320;2023-11-19T00:45:05;96892.69;;;5.10;100.00
20115;BME280;10218;42.874;25.320;2023-11-19T00:47:36;96897.69;;;5.13;100.00
20115;BME280;10218;42.874;25.320;2023-11-19T00:50:03;96889.28;;;4.90;100.00
20115;BME280;10218;42.874;25.320;2023-11-19T00:52:31;96900.34;;;5.13;100.00
20115;BME280;10218;42.874;25.320;2023-11-19T00:54:58;96901.81;;;4.88;100.00
20115;BME280;10218;42.874;25.320;2023-11-19T00:57:26;96898.87;;;5.01;100.00
20115;BME280;10218;42.874;25.320;2023-11-19T00:59:54;96893.06;;;4.78;100.00
20115;BME280;10218;42.874;25.320;2023-11-19T01:02:21;96895.25;;;5.02;100.00
20115;BME280;10218;42.874;25.320;2023-11-19T01:04:48;96890.53;;;4.96;100.00
20115;BME280;10218;42.874;25.320;2023-11-19T01:07:15;96867.19;;;5.09;100.00
20115;BME280;10218;42.874;25.320;2023-11-19T01:09:43;96889.19;;;5.19;100.00
20115;BME280;10218;42.874;25.320;2023-11-19T01:12:10;96888.00;;;4.94;100.00
20115;BME280;10218;42.874;25.320;2023-11-19T01:14:37;96900.28;;;4.95;100.00
20115;BME280;10218;42.874;25.320;2023-11-19T01:17:05;96905.81;;;5.11;100.00
20115;BME280;10218;42.874;25.320;2023-11-19T01:19:32;96908.81;;;5.26;100.00
20115;BME280;10218;42.874;25.320;2023-11-19T01:22:00;96904.06;;;4.83;100.00
20115;BME280;10218;42.874;25.320;2023-11-19T01:24:27;96908.28;;;5.13;100.00
20115;BME280;10218;42.874;25.320;2023-11-19T01:26:55;96909.22;;;5.31;100.00
20115;BME280;10218;42.874;25.320;2023-11-19T01:29:24;96905.25;;;5.08;100.00
20115;BME280;10218;42.874;25.320;2023-11-19T01:31:51;96896.88;;;5.12;100.00
20115;BME280;10218;42.874;25.320;2023-11-19T01:34:19;96908.31;;;5.03;100.00
20115;BME280;10218;42.874;25.320;2023-11-19T01:36:47;96904.56;;;5.06;100.00
20115;BME280;10218;42.874;25.320;2023-11-19T01:39:15;96903.44;;;5.08;100.00
20115;BME280;10218;42.874;25.320;2023-11-19T01:41:43;96911.78;;;5.13;100.00
20115;BME280;10218;42.874;25.320;2023-11-19T01:44:10;96902.59;;;5.08;100.00
20115;BME280;10218;42.874;25.320;2023-11-19T01:46:44;96899.31;;;4.96;100.00
20115;BME280;10218;42.874;25.320;2023-11-19T01:49:15;96908.38;;;4.84;100.00
20115;BME280;10218;42.874;25.320;2023-11-19T01:51:42;96891.28;;;5.15;100.00
20115;BME280;10218;42.874;25.320;2023-11-19T01:54:10;96902.19;;;5.12;100.00
20115;BME280;10218;42.874;25.320;2023-11-19T01:56:38;96895.06;;;5.13;100.00
20115;BME280;10218;42.874;25.320;2023-11-19T01:59:12;96899.13;;;5.07;100.00
20115;BME280;10218;42.874;25.320;2023-11-19T02:01:41;96893.84;;;4.98;100.00
20115;BME280;10218;42.874;25.320;2023-11-19T02:04:09;96887.97;;;5.04;100.00
20115;BME280;10218;42.874;25.320;2023-11-19T02:06:40;96898.34;;;4.97;100.00
20115;BME280;10218;42.874;25.320;2023-11-19T02:09:08;96897.13;;;5.19;100.00
20115;BME280;10218;42.874;25.320;2023-11-19T02:11:36;96890.44;;;5.15;100.00
20115;BME280;10218;42.874;25.320;2023-11-19T02:14:06;96892.88;;;5.36;100.00
20115;BME280;10218;42.874;25.320;2023-11-19T02:16:34;96890.66;;;4.94;100.00
20115;BME280;10218;42.874;25.320;2023-11-19T02:19:01;96899.09;;;5.17;100.00
20115;BME280;10218;42.874;25.320;2023-11-19T02:21:28;96896.31;;;5.09;100.00
20115;BME280;10218;42.874;25.320;2023-11-19T02:23:57;96909.69;;;5.17;100.00
20115;BME280;10218;42.874;25.320;2023-11-19T02:29:01;96909.56;;;5.09;100.00
20115;BME280;10218;42.874;25.320;2023-11-19T02:31:30;96902.19;;;5.12;100.00
20115;BME280;10218;42.874;25.320;2023-11-19T02:33:59;96912.78;;;5.40;100.00
20115;BME280;10218;42.874;25.320;2023-11-19T02:36:28;96909.97;;;5.51;100.00
20115;BME280;10218;42.874;25.320;2023-11-19T02:38:55;96910.03;;;5.69;100.00
20115;BME280;10218;42.874;25.320;2023-11-19T02:41:22;96924.22;;;5.40;100.00
20115;BME280;10218;42.874;25.320;2023-11-19T02:43:49;96921.31;;;5.43;100.00
20115;BME280;10218;42.874;25.320;2023-11-19T02:46:16;96924.75;;;5.16;100.00
20115;BME280;10218;42.874;25.320;2023-11-19T02:48:44;96906.47;;;5.50;100.00
20115;BME280;10218;42.874;25.320;2023-11-19T02:51:14;96930.88;;;5.17;100.00
20115;BME280;10218;42.874;25.320;2023-11-19T02:53:41;96924.81;;;5.34;100.00
20115;BME280;10218;42.874;25.320;2023-11-19T02:56:11;96924.78;;;4.88;100.00
20115;BME280;10218;42.874;25.320;2023-11-19T02:58:53;96931.59;;;5.46;100.00
20115;BME280;10218;42.874;25.320;2023-11-19T03:01:24;96942.38;;;5.35;100.00
20115;BME280;10218;42.874;25.320;2023-11-19T03:03:59;96933.62;;;5.25;100.00
20115;BME280;10218;42.874;25.320;2023-11-19T03:06:28;96936.72;;;5.21;100.00
20115;BME280;10218;42.874;25.320;2023-11-19T03:08:55;96932.31;;;5.02;100.00
20115;BME280;10218;42.874;25.320;2023-11-19T03:11:23;96935.78;;;5.12;100.00
20115;BME280;10218;42.874;25.320;2023-11-19T03:13:51;96940.38;;;5.00;100.00
20115;BME280;10218;42.874;25.320;2023-11-19T03:16:18;96938.97;;;5.06;100.00
20115;BME280;10218;42.874;25.320;2023-11-19T03:18:46;96940.69;;;5.34;100.00
20115;BME280;10218;42.874;25.320;2023-11-19T03:21:13;96937.19;;;5.43;100.00
20115;BME280;10218;42.874;25.320;2023-11-19T03:23:40;96933.00;;;5.41;100.00
20115;BME280;10218;42.874;25.320;2023-11-19T03:26:10;96931.50;;;5.29;100.00
20115;BME280;10218;42.874;25.320;2023-11-19T03:28:38;96946.03;;;5.25;100.00
20115;BME280;10218;42.874;25.320;2023-11-19T03:31:05;96942.59;;;5.05;100.00
20115;BME280;10218;42.874;25.320;2023-11-19T03:33:35;96947.56;;;5.27;100.00
20115;BME280;10218;42.874;25.320;2023-11-19T03:36:04;96945.91;;;5.26;100.00
20115;BME280;10218;42.874;25.320;2023-11-19T03:38:32;96948.19;;;5.48;100.00
20115;BME280;10218;42.874;25.320;2023-11-19T03:40:59;96954.56;;;5.09;100.00
20115;BME280;10218;42.874;25.320;2023-11-19T03:43:26;96940.44;;;5.65;100.00
20115;BME280;10218;42.874;25.320;2023-11-19T03:45:54;96947.63;;;5.45;100.00
20115;BME280;10218;42.874;25.320;2023-11-19T03:48:21;96951.59;;;5.31;100.00
20115;BME280;10218;42.874;25.320;2023-11-19T03:50:49;96941.44;;;5.27;100.00
20115;BME280;10218;42.874;25.320;2023-11-19T03:53:16;96947.13;;;5.32;100.00
20115;BME280;10218;42.874;25.320;2023-11-19T03:55:45;96956.19;;;5.29;100.00
20115;BME280;10218;42.874;25.320;2023-11-19T03:58:12;96958.47;;;5.14;100.00
20115;BME280;10218;42.874;25.320;2023-11-19T04:00:39;96967.19;;;5.34;100.00
20115;BME280;10218;42.874;25.320;2023-11-19T04:03:08;96973.34;;;5.25;100.00
20115;BME280;10218;42.874;25.320;2023-11-19T04:05:35;96973.28;;;5.44;100.00
20115;BME280;10218;42.874;25.320;2023-11-19T04:08:02;96978.53;;;5.17;100.00
20115;BME280;10218;42.874;25.320;2023-11-19T04:10:29;96974.06;;;5.27;100.00
20115;BME280;10218;42.874;25.320;2023-11-19T04:12:57;96983.94;;;5.25;100.00
20115;BME280;10218;42.874;25.320;2023-11-19T04:15:24;96984.28;;;5.49;100.00
20115;BME280;10218;42.874;25.320;2023-11-19T04:17:51;96988.19;;;5.45;100.00
20115;BME280;10218;42.874;25.320;2023-11-19T04:20:20;97005.81;;;5.37;100.00
20115;BME280;10218;42.874;25.320;2023-11-19T04:22:47;97011.94;;;5.37;100.00
20115;BME280;10218;42.874;25.320;2023-11-19T04:25:15;97012.00;;;5.55;100.00
20115;BME280;10218;42.874;25.320;2023-11-19T04:27:43;97012.31;;;5.52;100.00
20115;BME280;10218;42.874;25.320;2023-11-19T04:30:10;97008.41;;;5.56;100.00
20115;BME280;10218;42.874;25.320;2023-11-19T04:32:38;97009.94;;;5.58;100.00
20115;BME280;10218;42.874;25.320;2023-11-19T04:35:07;97021.97;;;5.43;100.00
20115;BME280;10218;42.874;25.320;2023-11-19T04:37:35;97017.03;;;4.92;100.00
20115;BME280;10218;42.874;25.320;2023-11-19T04:40:03;97028.41;;;5.31;100.00
20115;BME280;10218;42.874;25.320;2023-11-19T04:42:30;97029.22;;;5.41;100.00
20115;BME280;10218;42.874;25.320;2023-11-19T04:44:58;97031.16;;;5.39;100.00
20115;BME280;10218;42.874;25.320;2023-11-19T04:47:26;97028.56;;;5.20;100.00
20115;BME280;10218;42.874;25.320;2023-11-19T04:49:54;97041.50;;;5.33;100.00
20115;BME280;10218;42.874;25.320;2023-11-19T04:52:21;97041.50;;;5.42;100.00
20115;BME280;10218;42.874;25.320;2023-11-19T04:54:49;97044.28;;;5.41;100.00
20115;BME280;10218;42.874;25.320;2023-11-19T04:57:17;97044.59;;;5.28;100.00
20115;BME280;10218;42.874;25.320;2023-11-19T04:59:44;97067.28;;;5.31;100.00
20115;BME280;10218;42.874;25.320;2023-11-19T05:02:11;97070.50;;;5.25;100.00
20115;BME280;10218;42.874;25.320;2023-11-19T05:04:42;97079.44;;;5.33;100.00
20115;BME280;10218;42.874;25.320;2023-11-19T05:07:11;97066.66;;;5.66;100.00
20115;BME280;10218;42.874;25.320;2023-11-19T05:09:38;97073.72;;;5.28;100.00
20115;BME280;10218;42.874;25.320;2023-11-19T05:12:05;97067.00;;;5.53;100.00
20115;BME280;10218;42.874;25.320;2023-11-19T05:14:35;97071.84;;;5.57;100.00
20115;BME280;10218;42.874;25.320;2023-11-19T05:17:02;97071.63;;;4.84;100.00
20115;BME280;10218;42.874;25.320;2023-11-19T05:19:29;97076.94;;;5.03;100.00
20115;BME280;10218;42.874;25.320;2023-11-19T05:21:57;97070.25;;;5.28;100.00
20115;BME280;10218;42.874;25.320;2023-11-19T05:24:24;97070.66;;;5.23;100.00
20115;BME280;10218;42.874;25.320;2023-11-19T05:26:52;97077.75;;;5.13;100.00
20115;BME280;10218;42.874;25.320;2023-11-19T05:29:19;97074.09;;;5.52;100.00
20115;BME280;10218;42.874;25.320;2023-11-19T05:31:46;97076.38;;;5.09;100.00
20115;BME280;10218;42.874;25.320;2023-11-19T05:34:14;97071.59;;;5.41;100.00
20115;BME280;10218;42.874;25.320;2023-11-19T05:36:42;97076.63;;;5.35;100.00
20115;BME280;10218;42.874;25.320;2023-11-19T05:39:10;97070.19;;;5.47;100.00
20115;BME280;10218;42.874;25.320;2023-11-19T05:41:38;97071.34;;;5.25;100.00
20115;BME280;10218;42.874;25.320;2023-11-19T05:44:06;97076.59;;;5.54;100.00
20115;BME280;10218;42.874;25.320;2023-11-19T05:46:33;97082.87;;;5.34;100.00
20115;BME280;10218;42.874;25.320;2023-11-19T05:49:01;97078.31;;;5.26;100.00
20115;BME280;10218;42.874;25.320;2023-11-19T05:51:28;97094.09;;;5.18;100.00
20115;BME280;10218;42.874;25.320;2023-11-19T05:53:55;97089.72;;;5.46;100.00
20115;BME280;10218;42.874;25.320;2023-11-19T05:56:24;97095.03;;;5.36;100.00
20115;BME280;10218;42.874;25.320;2023-11-19T05:58:52;97097.63;;;5.65;100.00
20115;BME280;10218;42.874;25.320;2023-11-19T06:01:19;97095.59;;;5.21;100.00
20115;BME280;10218;42.874;25.320;2023-11-19T06:03:46;97092.38;;;5.36;100.00
20115;BME280;10218;42.874;25.320;2023-11-19T06:06:16;97099.34;;;5.37;100.00
20115;BME280;10218;42.874;25.320;2023-11-19T06:08:43;97095.84;;;5.46;100.00
20115;BME280;10218;42.874;25.320;2023-11-19T06:11:11;97102.59;;;5.22;100.00
20115;BME280;10218;42.874;25.320;2023-11-19T06:13:45;97100.03;;;5.39;100.00
20115;BME280;10218;42.874;25.320;2023-11-19T06:16:14;97097.16;;;5.23;100.00
20115;BME280;10218;42.874;25.320;2023-11-19T06:18:41;97065.94;;;5.07;100.00
20115;BME280;10218;42.874;25.320;2023-11-19T06:21:11;97106.31;;;5.57;100.00
20115;BME280;10218;42.874;25.320;2023-11-19T06:23:39;97106.72;;;5.53;100.00
20115;BME280;10218;42.874;25.320;2023-11-19T06:26:06;97113.16;;;5.41;100.00
20115;BME280;10218;42.874;25.320;2023-11-19T06:28:34;97111.87;;;5.54;100.00
20115;BME280;10218;42.874;25.320;2023-11-19T06:31:01;97120.41;;;5.48;100.00
20115;BME280;10218;42.874;25.320;2023-11-19T06:33:28;97119.16;;;5.24;100.00
20115;BME280;10218;42.874;25.320;2023-11-19T06:35:56;97101.44;;;5.34;100.00
20115;BME280;10218;42.874;25.320;2023-11-19T06:38:24;97104.34;;;5.50;100.00
20115;BME280;10218;42.874;25.320;2023-11-19T06:40:52;97095.28;;;5.52;100.00
20115;BME280;10218;42.874;25.320;2023-11-19T06:43:20;97103.00;;;5.17;100.00
20115;BME280;10218;42.874;25.320;2023-11-19T06:45:48;97108.94;;;5.57;100.00
20115;BME280;10218;42.874;25.320;2023-11-19T06:48:15;97118.44;;;5.41;100.00
20115;BME280;10218;42.874;25.320;2023-11-19T06:50:43;97127.13;;;5.33;100.00
20115;BME280;10218;42.874;25.320;2023-11-19T06:53:11;97112.94;;;5.81;100.00
20115;BME280;10218;42.874;25.320;2023-11-19T06:55:39;97121.44;;;5.75;100.00
20115;BME280;10218;42.874;25.320;2023-11-19T06:58:06;97122.19;;;5.57;100.00
20115;BME280;10218;42.874;25.320;2023-11-19T07:00:34;97109.78;;;5.58;100.00
20115;BME280;10218;42.874;25.320;2023-11-19T07:03:02;97113.69;;;5.64;100.00
20115;BME280;10218;42.874;25.320;2023-11-19T07:05:30;97112.78;;;5.82;100.00
20115;BME280;10218;42.874;25.320;2023-11-19T07:07:58;97120.22;;;5.79;100.00
20115;BME280;10218;42.874;25.320;2023-11-19T07:10:25;97136.00;;;5.51;100.00
20115;BME280;10218;42.874;25.320;2023-11-19T07:12:53;97132.34;;;5.72;100.00
20115;BME280;10218;42.874;25.320;2023-11-19T07:15:20;97124.00;;;5.67;100.00
20115;BME280;10218;42.874;25.320;2023-11-19T07:17:48;97138.47;;;5.82;100.00
20115;BME280;10218;42.874;25.320;2023-11-19T07:20:27;97133.19;;;5.72;100.00
20115;BME280;10218;42.874;25.320;2023-11-19T07:22:55;97128.19;;;5.59;100.00
20115;BME280;10218;42.874;25.320;2023-11-19T07:25:23;97142.63;;;5.84;100.00
20115;BME280;10218;42.874;25.320;2023-11-19T07:27:51;97147.12;;;5.65;100.00
20115;BME280;10218;42.874;25.320;2023-11-19T07:30:19;97151.84;;;5.90;100.00
20115;BME280;10218;42.874;25.320;2023-11-19T07:32:46;97149.22;;;5.71;100.00
20115;BME280;10218;42.874;25.320;2023-11-19T07:35:14;97158.50;;;6.13;100.00
20115;BME280;10218;42.874;25.320;2023-11-19T07:37:42;97162.47;;;5.80;100.00
20115;BME280;10218;42.874;25.320;2023-11-19T07:40:09;97166.47;;;6.13;100.00
20115;BME280;10218;42.874;25.320;2023-11-19T07:42:39;97169.31;;;5.83;100.00
20115;BME280;10218;42.874;25.320;2023-11-19T07:45:06;97156.25;;;5.52;100.00
20115;BME280;10218;42.874;25.320;2023-11-19T07:47:33;97172.81;;;5.74;100.00
20115;BME280;10218;42.874;25.320;2023-11-19T07:50:02;97176.38;;;6.11;100.00
20115;BME280;10218;42.874;25.320;2023-11-19T07:52:29;97173.59;;;6.13;100.00
20115;BME280;10218;42.874;25.320;2023-11-19T07:54:56;97157.19;;;5.71;100.00
20115;BME280;10218;42.874;25.320;2023-11-19T07:57:23;97157.72;;;5.84;100.00
20115;BME280;10218;42.874;25.320;2023-11-19T07:59:51;97159.84;;;6.27;100.00
20115;BME280;10218;42.874;25.320;2023-11-19T08:02:18;97156.31;;;5.99;100.00
20115;BME280;10218;42.874;25.320;2023-11-19T08:04:46;97160.34;;;6.03;100.00
20115;BME280;10218;42.874;25.320;2023-11-19T08:07:16;97174.88;;;5.80;100.00
20115;BME280;10218;42.874;25.320;2023-11-19T08:09:45;97178.50;;;6.44;100.00
20115;BME280;10218;42.874;25.320;2023-11-19T08:12:12;97177.41;;;6.37;100.00
20115;BME280;10218;42.874;25.320;2023-11-19T08:14:41;97175.50;;;6.20;100.00
20115;BME280;10218;42.874;25.320;2023-11-19T08:17:08;97168.06;;;6.70;100.00
20115;BME280;10218;42.874;25.320;2023-11-19T08:19:36;97180.41;;;6.52;100.00
20115;BME280;10218;42.874;25.320;2023-11-19T08:22:03;97184.16;;;6.22;100.00
20115;BME280;10218;42.874;25.320;2023-11-19T08:24:31;97179.88;;;7.39;100.00
20115;BME280;10218;42.874;25.320;2023-11-19T08:26:58;97173.47;;;6.96;100.00
20115;BME280;10218;42.874;25.320;2023-11-19T08:29:28;97192.56;;;6.82;100.00
20115;BME280;10218;42.874;25.320;2023-11-19T08:31:56;97189.41;;;6.96;100.00
20115;BME280;10218;42.874;25.320;2023-11-19T08:34:23;97190.59;;;7.29;100.00
20115;BME280;10218;42.874;25.320;2023-11-19T08:36:50;97185.69;;;6.62;100.00
20115;BME280;10218;42.874;25.320;2023-11-19T08:39:20;97182.00;;;7.17;100.00
20115;BME280;10218;42.874;25.320;2023-11-19T08:41:50;97178.31;;;6.83;100.00
20115;BME280;10218;42.874;25.320;2023-11-19T08:44:17;97185.09;;;6.95;100.00
20115;BME280;10218;42.874;25.320;2023-11-19T08:46:50;97182.00;;;7.17;100.00
20115;BME280;10218;42.874;25.320;2023-11-19T08:49:17;97179.53;;;6.61;100.00
20115;BME280;10218;42.874;25.320;2023-11-19T08:51:45;97182.53;;;7.74;100.00
20115;BME280;10218;42.874;25.320;2023-11-19T08:54:12;97189.16;;;7.70;100.00
20115;BME280;10218;42.874;25.320;2023-11-19T08:56:40;97185.97;;;7.49;100.00
20115;BME280;10218;42.874;25.320;2023-11-19T08:59:07;97177.72;;;8.47;100.00
20115;BME280;10218;42.874;25.320;2023-11-19T09:01:35;97192.53;;;8.49;100.00
20115;BME280;10218;42.874;25.320;2023-11-19T09:04:03;97180.72;;;9.52;100.00
20115;BME280;10218;42.874;25.320;2023-11-19T09:06:31;97185.06;;;9.94;100.00
20115;BME280;10218;42.874;25.320;2023-11-19T09:08:58;97185.34;;;9.26;100.00
20115;BME280;10218;42.874;25.320;2023-11-19T09:11:29;97184.41;;;10.16;100.00
20115;BME280;10218;42.874;25.320;2023-11-19T09:13:57;97190.25;;;7.85;100.00
20115;BME280;10218;42.874;25.320;2023-11-19T09:16:24;97169.72;;;10.04;100.00
20115;BME280;10218;42.874;25.320;2023-11-19T09:18:52;97181.91;;;8.91;100.00
20115;BME280;10218;42.874;25.320;2023-11-19T09:21:19;97173.91;;;8.83;100.00
20115;BME280;10218;42.874;25.320;2023-11-19T09:23:46;97177.56;;;7.97;100.00
20115;BME280;10218;42.874;25.320;2023-11-19T09:26:14;97164.84;;;7.65;100.00
20115;BME280;10218;42.874;25.320;2023-11-19T09:28:41;97175.97;;;7.86;100.00
20115;BME280;10218;42.874;25.320;2023-11-19T09:31:18;97171.38;;;7.53;100.00
20115;BME280;10218;42.874;25.320;2023-11-19T09:33:45;97168.50;;;8.67;100.00
20115;BME280;10218;42.874;25.320;2023-11-19T09:36:13;97168.50;;;8.67;100.00
20115;BME280;10218;42.874;25.320;2023-11-19T09:38:44;97162.34;;;7.46;100.00
20115;BME280;10218;42.874;25.320;2023-11-19T09:41:12;97156.75;;;7.92;100.00
20115;BME280;10218;42.874;25.320;2023-11-19T09:43:40;97168.16;;;8.70;100.00
20115;BME280;10218;42.874;25.320;2023-11-19T09:46:12;97157.97;;;7.80;100.00
20115;BME280;10218;42.874;25.320;2023-11-19T09:48:40;97156.72;;;8.44;100.00
20115;BME280;10218;42.874;25.320;2023-11-19T09:51:09;97154.22;;;8.84;100.00
20115;BME280;10218;42.874;25.320;2023-11-19T09:53:37;97149.22;;;9.64;100.00
20115;BME280;10218;42.874;25.320;2023-11-19T09:56:05;97156.72;;;8.44;100.00
20115;BME280;10218;42.874;25.320;2023-11-19T09:58:33;97147.84;;;9.35;100.00
20115;BME280;10218;42.874;25.320;2023-11-19T10:01:01;97157.34;;;12.27;69.36
20115;BME280;10218;42.874;25.320;2023-11-19T10:03:37;97149.63;;;10.48;86.39
20115;BME280;10218;42.874;25.320;2023-11-19T10:06:07;97141.69;;;9.19;100.00
20115;BME280;10218;42.874;25.320;2023-11-19T10:08:38;97150.81;;;10.85;79.51
20115;BME280;10218;42.874;25.320;2023-11-19T10:11:07;97139.34;;;8.66;100.00
20115;BME280;10218;42.874;25.320;2023-11-19T10:13:35;97140.84;;;8.60;100.00
20115;BME280;10218;42.874;25.320;2023-11-19T10:16:09;97140.59;;;11.27;88.92
20115;BME280;10218;42.874;25.320;2023-11-19T10:18:49;97141.97;;;12.06;66.04
20115;BME280;10218;42.874;25.320;2023-11-19T10:21:18;97142.81;;;11.15;78.33
20115;BME280;10218;42.874;25.320;2023-11-19T10:23:51;97133.97;;;10.37;81.08
20115;BME280;10218;42.874;25.320;2023-11-19T10:26:19;97149.03;;;9.81;100.00
20115;BME280;10218;42.874;25.320;2023-11-19T10:28:48;97158.06;;;10.68;86.42
20115;BME280;10218;42.874;25.320;2023-11-19T10:31:16;97154.78;;;10.97;79.19
20115;BME280;10218;42.874;25.320;2023-11-19T10:33:45;97138.38;;;9.81;98.32
20115;BME280;10218;42.874;25.320;2023-11-19T10:36:13;97145.69;;;9.55;94.33
20115;BME280;10218;42.874;25.320;2023-11-19T10:38:52;97136.88;;;9.47;86.71
20115;BME280;10218;42.874;25.320;2023-11-19T10:41:29;97136.03;;;11.05;92.31
20115;BME280;10218;42.874;25.320;2023-11-19T10:44:00;97140.53;;;10.18;91.42
20115;BME280;10218;42.874;25.320;2023-11-19T10:46:41;97142.19;;;10.03;92.00
20115;BME280;10218;42.874;25.320;2023-11-19T10:49:09;97143.03;;;9.87;88.10
20115;BME280;10218;42.874;25.320;2023-11-19T10:51:41;97135.37;;;9.76;90.63
20115;BME280;10218;42.874;25.320;2023-11-19T10:54:15;97135.19;;;10.02;92.10
20115;BME280;10218;42.874;25.320;2023-11-19T10:56:48;97142.03;;;9.32;99.18
20115;BME280;10218;42.874;25.320;2023-11-19T10:59:19;97132.81;;;9.10;99.85
20115;BME280;10218;42.874;25.320;2023-11-19T11:01:52;97145.72;;;9.39;100.00
20115;BME280;10218;42.874;25.320;2023-11-19T11:04:24;97150.69;;;9.91;94.00
20115;BME280;10218;42.874;25.320;2023-11-19T11:06:55;97158.03;;;9.97;94.54
20115;BME280;10218;42.874;25.320;2023-11-19T11:09:26;97150.37;;;9.77;96.84
20115;BME280;10218;42.874;25.320;2023-11-19T11:11:55;97154.06;;;9.68;98.24
20115;BME280;10218;42.874;25.320;2023-11-19T11:14:24;97162.72;;;9.62;100.00
20115;BME280;10218;42.874;25.320;2023-11-19T11:16:53;97157.72;;;9.83;98.80
20115;BME280;10218;42.874;25.320;2023-11-19T11:19:20;97151.03;;;9.47;100.00
20115;BME280;10218;42.874;25.320;2023-11-19T11:21:53;97157.72;;;9.59;100.00
20115;BME280;10218;42.874;25.320;2023-11-19T11:24:48;97160.38;;;9.67;94.25
20115;BME280;10218;42.874;25.320;2023-11-19T11:38:04;97154.69;;;10.03;96.31
20115;BME280;10218;42.874;25.320;2023-11-19T11:40:34;97157.25;;;11.29;93.80
20115;BME280;10218;42.874;25.320;2023-11-19T11:43:01;97149.00;;;9.17;89.30
20115;BME280;10218;42.874;25.320;2023-11-19T11:45:39;97155.72;;;9.85;95.41
20115;BME280;10218;42.874;25.320;2023-11-19T11:48:11;97162.88;;;11.73;65.75
20115;BME280;10218;42.874;25.320;2023-11-19T11:50:49;97149.63;;;13.26;63.76
20115;BME280;10218;42.874;25.320;2023-11-19T11:53:18;97131.69;;;15.22;55.26
20115;BME280;10218;42.874;25.320;2023-11-19T11:58:40;97119.53;;;17.41;42.27
20115;BME280;10218;42.874;25.320;2023-11-19T12:01:06;97121.09;;;16.40;43.75
20115;BME280;10218;42.874;25.320;2023-11-19T12:03:34;97134.63;;;13.32;46.48
20115;BME280;10218;42.874;25.320;2023-11-19T12:06:01;97126.09;;;16.04;43.17
20115;BME280;10218;42.874;25.320;2023-11-19T12:08:29;97122.72;;;12.69;47.43
20115;BME280;10218;42.874;25.320;2023-11-19T12:10:58;97117.63;;;14.38;45.77
20115;BME280;10218;42.874;25.320;2023-11-19T12:14:15;97097.84;;;16.65;43.66
20115;BME280;10218;42.874;25.320;2023-11-19T12:16:17;97093.78;;;15.10;43.97
20115;BME280;10218;42.874;25.320;2023-11-19T12:18:44;97107.25;;;14.35;45.58
20115;BME280;10218;42.874;25.320;2023-11-19T12:21:11;97095.34;;;14.16;48.83
20115;BME280;10218;42.874;25.320;2023-11-19T12:23:54;97110.25;;;16.80;43.87
20115;BME280;10218;42.874;25.320;2023-11-19T12:26:41;97109.91;;;14.07;47.18
20115;BME280;10218;42.874;25.320;2023-11-19T12:29:09;97122.38;;;13.23;48.40
20115;BME280;10218;42.874;25.320;2023-11-19T12:31:36;97114.59;;;15.43;44.88
20115;BME280;10218;42.874;25.320;2023-11-19T12:34:07;97112.81;;;16.09;43.04
20115;BME280;10218;42.874;25.320;2023-11-19T12:36:39;97116.53;;;13.55;45.91
20115;BME280;10218;42.874;25.320;2023-11-19T12:39:06;97112.09;;;15.48;43.55
20115;BME280;10218;42.874;25.320;2023-11-19T12:41:48;97098.06;;;17.15;41.81
20115;BME280;10218;42.874;25.320;2023-11-19T12:44:16;97104.66;;;14.82;45.18
20115;BME280;10218;42.874;25.320;2023-11-19T12:46:43;97091.72;;;14.02;48.35
20115;BME280;10218;42.874;25.320;2023-11-19T12:49:11;97083.75;;;14.84;45.15
20115;BME280;10218;42.874;25.320;2023-11-19T12:51:39;97089.53;;;15.42;43.52
20115;BME280;10218;42.874;25.320;2023-11-19T12:54:06;97082.91;;;16.43;41.30
20115;BME280;10218;42.874;25.320;2023-11-19T12:56:33;97069.22;;;15.39;44.23
20115;BME280;10218;42.874;25.320;2023-11-19T12:59:10;97068.41;;;13.82;45.34
20115;BME280;10218;42.874;25.320;2023-11-19T13:01:38;97068.13;;;13.98;45.24
20115;BME280;10218;42.874;25.320;2023-11-19T13:04:17;97054.28;;;15.30;43.41
20115;BME280;10218;42.874;25.320;2023-11-19T13:06:45;97044.66;;;14.13;45.41
20115;BME280;10218;42.874;25.320;2023-11-19T13:09:30;97035.09;;;14.79;44.33
20115;BME280;10218;42.874;25.320;2023-11-19T13:11:57;97039.13;;;13.87;46.82
20115;BME280;10218;42.874;25.320;2023-11-19T13:14:36;97029.88;;;14.65;45.19